createdAt,value
2018-12-31T00:02:31.937Z,13.72
2018-12-31T00:05:00.618Z,14.50
2018-12-31T00:07:29.273Z,14.78
2018-12-31T00:09:57.917Z,16.50
2018-12-31T00:12:27.003Z,15.18
2018-12-31T00:14:55.658Z,13.50
2018-12-31T00:17:24.309Z,13.53
2018-12-31T00:19:53.035Z,14.05
2018-12-31T00:22:23.725Z,13.45
2018-12-31T00:24:52.352Z,14.55
2018-12-31T00:27:21.117Z,14.45
2018-12-31T00:29:49.981Z,14.65
2018-12-31T00:32:18.977Z,13.93
2018-12-31T00:34:47.611Z,12.68
2018-12-31T00:37:16.360Z,13.93
2018-12-31T00:39:44.992Z,13.08
2018-12-31T00:42:13.679Z,12.70
2018-12-31T00:44:42.351Z,13.55
2018-12-31T00:47:11.158Z,13.65
2018-12-31T00:49:39.828Z,15.45
2018-12-31T00:52:08.479Z,14.55
2018-12-31T00:54:37.178Z,15.83
2018-12-31T00:57:05.805Z,13.55
2018-12-31T00:59:35.413Z,14.35
2018-12-31T01:02:04.191Z,13.45
2018-12-31T01:04:32.871Z,13.58
2018-12-31T01:07:01.537Z,13.93
2018-12-31T01:09:30.190Z,16.02
2018-12-31T01:11:58.861Z,15.40
2018-12-31T01:14:27.542Z,13.88
2018-12-31T01:16:56.171Z,17.02
2018-12-31T01:19:24.808Z,14.30
2018-12-31T01:21:53.458Z,14.15
2018-12-31T01:24:22.236Z,16.10
2018-12-31T01:26:50.903Z,15.53
2018-12-31T01:29:19.603Z,14.53
2018-12-31T01:31:48.242Z,15.60
2018-12-31T01:34:16.915Z,15.70
2018-12-31T01:36:45.579Z,15.08
2018-12-31T01:39:14.267Z,15.15
2018-12-31T01:41:42.904Z,15.63
2018-12-31T01:44:11.610Z,15.00
2018-12-31T01:46:40.255Z,15.80
2018-12-31T01:49:08.922Z,16.52
2018-12-31T01:51:37.561Z,16.42
2018-12-31T01:54:06.194Z,16.27
2018-12-31T01:56:34.872Z,15.65
2018-12-31T01:59:03.542Z,17.65
2018-12-31T02:01:32.175Z,16.30
2018-12-31T02:04:00.837Z,16.73
2018-12-31T02:06:30.898Z,17.00
2018-12-31T02:08:59.548Z,14.25
2018-12-31T02:11:28.201Z,15.65
2018-12-31T02:13:56.985Z,13.98
2018-12-31T02:16:25.692Z,14.07
2018-12-31T02:18:54.339Z,14.40
2018-12-31T02:21:22.998Z,15.68
2018-12-31T02:23:51.660Z,13.60
2018-12-31T02:26:20.330Z,14.65
2018-12-31T02:28:48.994Z,14.20
2018-12-31T02:31:17.657Z,12.65
2018-12-31T02:33:46.276Z,13.70
2018-12-31T02:36:14.974Z,13.62
2018-12-31T02:38:43.641Z,14.63
2018-12-31T02:41:12.374Z,12.55
2018-12-31T02:43:41.015Z,13.65
2018-12-31T02:46:09.694Z,11.80
2018-12-31T02:48:38.375Z,13.35
2018-12-31T02:51:07.023Z,13.20
2018-12-31T02:53:35.655Z,14.65
2018-12-31T02:56:04.478Z,13.38
2018-12-31T02:58:33.110Z,13.95
2018-12-31T03:01:01.838Z,14.25
2018-12-31T03:03:30.455Z,12.37
2018-12-31T03:05:59.097Z,13.32
2018-12-31T03:08:27.760Z,13.83
2018-12-31T03:10:56.398Z,13.20
2018-12-31T03:13:25.030Z,12.13
2018-12-31T03:15:53.659Z,13.10
2018-12-31T03:18:22.390Z,13.38
2018-12-31T03:20:51.022Z,14.35
2018-12-31T03:23:19.648Z,12.50
2018-12-31T03:25:48.326Z,13.83
2018-12-31T03:28:16.973Z,13.53
2018-12-31T03:30:45.671Z,13.53
2018-12-31T03:33:14.298Z,12.95
2018-12-31T03:35:42.921Z,13.00
2018-12-31T03:38:11.576Z,14.65
2018-12-31T03:40:40.243Z,12.05
2018-12-31T04:36:23.760Z,13.10
2018-12-31T04:38:52.448Z,14.65
2018-12-31T04:41:21.216Z,14.15
2018-12-31T04:43:49.871Z,14.50
2018-12-31T04:46:18.497Z,15.43
2018-12-31T04:48:47.176Z,14.95
2018-12-31T04:51:15.832Z,14.25
2018-12-31T04:53:44.542Z,16.57
2018-12-31T04:56:13.151Z,17.37
2018-12-31T04:58:41.834Z,15.83
2018-12-31T05:01:10.477Z,15.28
2018-12-31T05:03:39.127Z,15.18
2018-12-31T05:06:07.751Z,15.10
2018-12-31T05:08:36.394Z,13.72
2018-12-31T05:11:05.071Z,16.65
2018-12-31T05:13:33.714Z,16.30
2018-12-31T05:16:02.362Z,15.98
2018-12-31T05:18:31.040Z,16.45
2018-12-31T05:20:59.702Z,16.57
2018-12-31T05:23:28.339Z,15.32
2018-12-31T05:26:15.990Z,14.98
2018-12-31T05:28:44.686Z,16.10
2018-12-31T05:31:13.315Z,14.60
2018-12-31T05:33:42.001Z,15.38
2018-12-31T05:36:10.664Z,15.48
2018-12-31T05:38:39.308Z,15.20
2018-12-31T05:41:07.937Z,14.63
2018-12-31T05:43:36.590Z,15.90
2018-12-31T05:46:05.323Z,15.95
2018-12-31T05:48:34.004Z,14.50
2018-12-31T05:51:02.672Z,15.68
2018-12-31T05:53:31.347Z,17.75
2018-12-31T05:56:00.003Z,15.58
2018-12-31T05:58:28.655Z,15.75
2018-12-31T06:00:57.274Z,13.90
2018-12-31T06:03:26.025Z,16.12
2018-12-31T06:05:54.703Z,16.45
2018-12-31T06:08:42.553Z,17.20
2018-12-31T06:11:11.165Z,17.35
2018-12-31T06:13:39.804Z,17.00
2018-12-31T06:16:08.473Z,19.05
2018-12-31T06:18:37.150Z,17.87
2018-12-31T06:21:05.808Z,18.27
2018-12-31T06:23:34.526Z,18.37
2018-12-31T06:26:03.236Z,18.98
2018-12-31T06:28:31.894Z,18.07
2018-12-31T06:31:00.991Z,17.20
2018-12-31T06:33:29.729Z,19.60
2018-12-31T06:35:58.351Z,17.80
2018-12-31T06:38:26.999Z,18.32
2018-12-31T06:40:55.686Z,18.75
2018-12-31T06:43:24.321Z,19.80
2018-12-31T06:45:52.970Z,18.45
2018-12-31T06:48:21.599Z,19.48
2018-12-31T06:50:50.263Z,18.98
2018-12-31T06:53:18.984Z,17.95
2018-12-31T06:55:47.647Z,19.40
2018-12-31T06:58:16.263Z,22.00
2018-12-31T07:00:44.904Z,20.77
2018-12-31T07:03:13.584Z,19.23
2018-12-31T07:05:42.248Z,18.30
2018-12-31T07:08:10.865Z,20.30
2018-12-31T07:10:39.502Z,19.07
2018-12-31T07:13:08.132Z,17.55
2018-12-31T07:15:36.767Z,20.57
2018-12-31T07:18:05.462Z,18.90
2018-12-31T07:20:34.106Z,21.15
2018-12-31T07:23:02.734Z,20.05
2018-12-31T07:25:31.377Z,19.82
2018-12-31T07:28:00.005Z,19.42
2018-12-31T07:30:28.644Z,19.12
2018-12-31T07:32:57.288Z,18.15
2018-12-31T07:35:26.088Z,16.90
2018-12-31T07:37:55.169Z,16.90
2018-12-31T07:40:23.986Z,18.17
2018-12-31T07:42:52.713Z,18.92
2018-12-31T07:45:21.481Z,17.48
2018-12-31T07:47:50.313Z,18.85
2018-12-31T07:50:19.009Z,22.13
2018-12-31T07:52:47.730Z,18.82
2018-12-31T07:55:16.382Z,17.65
2018-12-31T07:57:45.029Z,18.10
2018-12-31T08:00:13.671Z,19.48
2018-12-31T08:02:42.289Z,17.67
2018-12-31T08:05:10.919Z,18.95
2018-12-31T08:07:39.541Z,18.15
2018-12-31T08:10:08.257Z,18.27
2018-12-31T08:12:36.890Z,19.55
2018-12-31T08:15:08.286Z,19.98
2018-12-31T08:17:36.933Z,18.87
2018-12-31T08:20:05.931Z,19.50
2018-12-31T08:22:34.652Z,19.65
2018-12-31T08:25:03.398Z,16.97
2018-12-31T08:27:32.147Z,17.42
2018-12-31T08:30:00.791Z,17.70
2018-12-31T08:32:29.671Z,16.77
2018-12-31T08:34:58.953Z,16.50
2018-12-31T08:37:27.694Z,16.15
2018-12-31T08:39:56.313Z,15.88
2018-12-31T08:42:24.955Z,17.42
2018-12-31T08:44:53.615Z,16.95
2018-12-31T08:47:22.268Z,13.70
2018-12-31T08:49:50.967Z,14.63
2018-12-31T08:52:19.631Z,14.75
2018-12-31T08:54:48.287Z,14.65
2018-12-31T08:57:16.934Z,13.43
2018-12-31T08:59:45.618Z,14.47
2018-12-31T09:02:14.312Z,15.58
2018-12-31T09:04:42.960Z,14.50
2018-12-31T09:10:10.245Z,14.80
2018-12-31T09:12:38.958Z,14.23
2018-12-31T09:15:07.742Z,13.08
2018-12-31T09:17:36.369Z,15.28
2018-12-31T09:20:06.110Z,13.35
2018-12-31T09:22:34.807Z,14.05
2018-12-31T09:25:03.446Z,14.33
2018-12-31T09:27:32.180Z,12.28
2018-12-31T09:30:00.811Z,13.70
2018-12-31T09:32:29.454Z,13.00
2018-12-31T09:34:58.113Z,14.10
2018-12-31T09:37:26.766Z,11.50
2018-12-31T09:39:55.474Z,15.23
2018-12-31T09:42:24.097Z,13.60
2018-12-31T09:44:52.736Z,13.48
2018-12-31T09:47:21.402Z,12.63
2018-12-31T09:49:50.071Z,14.15
2018-12-31T09:52:18.715Z,12.13
2018-12-31T09:54:47.351Z,12.58
2018-12-31T09:57:35.230Z,13.50
2018-12-31T10:00:03.964Z,12.43
2018-12-31T10:02:32.731Z,13.18
2018-12-31T10:05:01.353Z,11.78
2018-12-31T10:07:30.164Z,12.78
2018-12-31T10:09:58.794Z,12.45
2018-12-31T10:12:27.507Z,13.08
2018-12-31T10:14:56.237Z,12.60
2018-12-31T10:17:24.913Z,13.58
2018-12-31T10:19:53.798Z,13.28
2018-12-31T10:22:22.561Z,11.50
2018-12-31T10:24:51.222Z,11.60
2018-12-31T10:27:20.025Z,12.03
2018-12-31T10:29:48.661Z,12.95
2018-12-31T10:32:17.348Z,12.55
2018-12-31T10:34:46.050Z,13.65
2018-12-31T10:37:14.714Z,12.70
2018-12-31T10:39:43.416Z,12.10
2018-12-31T10:42:31.102Z,13.05
2018-12-31T10:44:59.733Z,12.55
2018-12-31T10:47:28.385Z,11.70
2018-12-31T10:49:57.033Z,12.40
2018-12-31T10:52:25.725Z,12.10
2018-12-31T10:54:54.454Z,12.73
2018-12-31T10:57:23.098Z,12.13
2018-12-31T10:59:51.735Z,12.10
2018-12-31T11:02:20.395Z,11.88
2018-12-31T11:04:49.035Z,12.93
2018-12-31T11:07:17.680Z,11.53
2018-12-31T11:09:46.356Z,12.03
2018-12-31T11:12:14.990Z,11.75
2018-12-31T11:14:43.667Z,12.28
2018-12-31T11:17:12.322Z,12.05
2018-12-31T11:19:40.982Z,11.18
2018-12-31T11:22:09.632Z,12.95
2018-12-31T11:24:38.293Z,13.20
2018-12-31T11:27:06.925Z,12.00
2018-12-31T11:29:35.620Z,11.60
2018-12-31T11:32:04.328Z,15.93
2018-12-31T11:34:33.027Z,12.33
2018-12-31T11:37:01.661Z,13.00
2018-12-31T11:39:30.361Z,11.78
2018-12-31T11:41:59.035Z,13.18
2018-12-31T11:44:27.708Z,13.08
2018-12-31T11:46:56.355Z,12.80
2018-12-31T11:49:25.015Z,13.68
2018-12-31T11:51:53.661Z,13.45
2018-12-31T11:54:41.611Z,13.25
2018-12-31T11:57:10.216Z,13.05
2018-12-31T11:59:38.961Z,13.00
2018-12-31T12:02:07.588Z,12.03
2018-12-31T12:04:36.236Z,12.07
2018-12-31T12:07:04.983Z,11.57
2018-12-31T12:09:33.751Z,12.78
2018-12-31T12:12:02.401Z,11.88
2018-12-31T12:14:31.103Z,11.38
2018-12-31T12:16:59.826Z,11.70
2018-12-31T12:19:47.701Z,11.57
2018-12-31T12:22:16.448Z,10.93
2018-12-31T12:24:46.971Z,11.60
2018-12-31T12:27:15.738Z,10.80
2018-12-31T12:29:44.442Z,11.50
2018-12-31T12:32:13.148Z,10.43
2018-12-31T12:34:41.941Z,12.13
2018-12-31T12:37:12.344Z,12.10
2018-12-31T12:39:41.004Z,11.60
2018-12-31T12:42:09.650Z,11.80
2018-12-31T12:50:59.624Z,10.80
2018-12-31T12:56:30.550Z,10.13
2018-12-31T12:58:57.073Z,10.80
2018-12-31T13:01:26.673Z,11.55
2018-12-31T13:03:55.818Z,10.80
2018-12-31T13:06:43.929Z,10.50
2018-12-31T13:09:52.716Z,10.65
2018-12-31T13:21:44.171Z,10.55
2018-12-31T13:24:13.733Z,10.08
2018-12-31T13:26:43.651Z,10.43
2018-12-31T13:29:14.473Z,9.08
2018-12-31T13:31:43.394Z,10.78
2018-12-31T13:37:19.932Z,10.40
2018-12-31T13:39:49.627Z,10.13
2018-12-31T13:42:23.892Z,10.80
2018-12-31T13:47:31.413Z,11.85
2018-12-31T13:50:00.177Z,10.48
2018-12-31T13:52:30.042Z,11.45
2018-12-31T14:00:27.921Z,11.78
2018-12-31T14:02:57.213Z,10.65
2018-12-31T14:05:26.362Z,9.45
2018-12-31T14:16:52.385Z,10.68
2018-12-31T14:19:22.207Z,9.80
2018-12-31T14:21:51.460Z,10.68
2018-12-31T14:24:22.486Z,9.70
2018-12-31T14:27:14.735Z,10.05
2018-12-31T14:32:19.528Z,11.08
2018-12-31T14:38:09.144Z,10.30
2018-12-31T14:40:37.748Z,9.83
2018-12-31T14:43:06.428Z,10.70
2018-12-31T14:45:35.051Z,10.35
2018-12-31T14:48:03.746Z,9.90
2018-12-31T14:50:32.381Z,9.73
2018-12-31T14:53:01.122Z,10.78
2018-12-31T14:55:29.754Z,9.70
2018-12-31T14:57:58.387Z,10.60
2018-12-31T15:00:27.197Z,9.95
2018-12-31T15:02:55.905Z,10.55
2018-12-31T15:05:24.564Z,11.35
2018-12-31T15:07:53.197Z,10.98
2018-12-31T15:10:21.893Z,12.58
2018-12-31T15:12:50.754Z,12.18
2018-12-31T15:15:19.409Z,12.20
2018-12-31T15:17:48.122Z,12.33
2018-12-31T15:20:16.811Z,11.78
2018-12-31T15:22:45.508Z,11.12
2018-12-31T15:25:35.170Z,11.70
2018-12-31T15:28:03.782Z,11.38
2018-12-31T15:30:32.422Z,10.98
2018-12-31T15:33:01.146Z,12.65
2018-12-31T15:35:29.796Z,12.20
2018-12-31T15:37:58.505Z,11.85
2018-12-31T15:40:27.133Z,13.25
2018-12-31T15:42:55.781Z,11.55
2018-12-31T15:45:24.477Z,12.88
2018-12-31T15:47:53.295Z,12.23
2018-12-31T15:50:21.958Z,12.58
2018-12-31T15:52:50.616Z,13.28
2018-12-31T15:55:19.266Z,13.30
2018-12-31T15:57:47.948Z,13.25
2018-12-31T16:00:18.306Z,12.30
2018-12-31T16:02:46.991Z,12.65
2018-12-31T16:05:15.697Z,13.30
2018-12-31T16:07:45.975Z,11.68
2018-12-31T16:10:14.814Z,13.68
2018-12-31T16:12:45.185Z,13.60
2018-12-31T16:15:13.816Z,13.32
2018-12-31T16:17:42.537Z,13.53
2018-12-31T16:20:11.192Z,14.18
2018-12-31T16:22:39.862Z,13.15
2018-12-31T16:25:10.254Z,13.03
2018-12-31T16:27:38.898Z,13.05
2018-12-31T16:30:08.077Z,13.10
2018-12-31T16:32:36.816Z,12.33
2018-12-31T16:35:05.564Z,14.23
2018-12-31T16:37:35.942Z,14.93
2018-12-31T16:40:04.878Z,13.72
2018-12-31T16:42:33.723Z,13.60
2018-12-31T16:45:02.427Z,13.13
2018-12-31T16:47:31.378Z,12.98
2018-12-31T16:52:57.486Z,12.73
2018-12-31T16:55:26.145Z,14.00
2018-12-31T16:57:55.021Z,14.35
2018-12-31T17:00:23.640Z,12.03
2018-12-31T17:02:52.297Z,12.33
2018-12-31T17:05:21.046Z,12.58
2018-12-31T17:07:49.675Z,13.43
2018-12-31T17:10:18.363Z,13.78
2018-12-31T17:12:47.035Z,18.92
2018-12-31T17:15:15.855Z,15.50
2018-12-31T17:17:44.488Z,17.05
2018-12-31T17:20:13.150Z,16.48
2018-12-31T17:22:41.789Z,18.20
2018-12-31T17:25:10.438Z,24.87
2018-12-31T17:27:39.306Z,19.20
2018-12-31T17:30:08.155Z,16.02
2018-12-31T17:32:36.779Z,17.90
2018-12-31T17:35:05.626Z,14.80
2018-12-31T17:37:36.081Z,17.05
2018-12-31T17:40:04.947Z,15.95
2018-12-31T17:42:33.596Z,14.85
2018-12-31T17:45:02.239Z,15.30
2018-12-31T17:47:30.993Z,15.45
2018-12-31T17:50:01.355Z,16.23
2018-12-31T17:52:30.002Z,14.25
2018-12-31T17:54:58.637Z,15.55
2018-12-31T17:57:27.300Z,14.93
2018-12-31T17:59:55.958Z,15.43
2018-12-31T18:02:24.793Z,14.85
2018-12-31T18:04:53.491Z,15.48
2018-12-31T18:07:22.163Z,14.45
2018-12-31T18:09:50.782Z,17.35
2018-12-31T18:12:19.412Z,25.32
2018-12-31T18:14:48.080Z,120.57
2018-12-31T18:17:16.701Z,25.88
2018-12-31T18:19:45.387Z,20.23
2018-12-31T18:22:14.073Z,19.05
2018-12-31T18:24:42.831Z,17.23
2018-12-31T18:27:11.458Z,16.42
2018-12-31T18:29:40.831Z,15.38
2018-12-31T18:32:09.454Z,16.95
2018-12-31T18:34:38.106Z,16.55
2018-12-31T18:37:06.799Z,19.05
2018-12-31T18:39:35.438Z,18.73
2018-12-31T18:42:04.197Z,18.62
2018-12-31T18:44:32.828Z,18.30
2018-12-31T18:47:01.504Z,18.27
2018-12-31T18:49:30.138Z,17.52
2018-12-31T18:51:58.829Z,18.48
2018-12-31T18:54:27.664Z,18.65
2018-12-31T18:56:56.312Z,18.90
2018-12-31T18:59:24.954Z,18.12
2018-12-31T19:01:53.643Z,17.32
2018-12-31T19:04:22.373Z,19.60
2018-12-31T19:06:52.759Z,18.37
2018-12-31T19:09:21.423Z,20.25
2018-12-31T19:11:50.094Z,18.98
2018-12-31T19:14:18.735Z,20.02
2018-12-31T19:16:47.377Z,19.95
2018-12-31T19:19:16.107Z,17.98
2018-12-31T19:21:44.850Z,18.62
2018-12-31T19:24:13.502Z,18.92
2018-12-31T19:26:42.198Z,17.62
2018-12-31T19:29:10.928Z,18.45
2018-12-31T19:31:39.608Z,17.48
2018-12-31T19:34:08.312Z,16.95
2018-12-31T19:37:22.175Z,18.57
2018-12-31T19:50:17.155Z,18.25
2018-12-31T19:53:32.394Z,70.08
2018-12-31T20:11:51.867Z,16.70
2018-12-31T20:14:42.639Z,16.07
2018-12-31T20:23:27.721Z,17.37
2018-12-31T20:28:52.876Z,18.02
2018-12-31T20:32:27.359Z,17.30
2018-12-31T20:35:56.238Z,18.50
2018-12-31T20:42:13.032Z,17.42
2018-12-31T20:45:55.410Z,20.10
2018-12-31T20:51:35.199Z,17.87
2018-12-31T21:06:59.622Z,18.30
2018-12-31T21:10:09.661Z,19.25
2018-12-31T21:12:44.460Z,23.47
2018-12-31T21:22:06.508Z,34.13
2018-12-31T21:28:13.872Z,19.92
2018-12-31T21:34:03.675Z,21.05
2018-12-31T21:42:29.640Z,78.30
2018-12-31T21:45:05.541Z,28.10
2018-12-31T21:50:30.087Z,21.68
2018-12-31T21:52:59.897Z,23.55
2018-12-31T21:59:20.047Z,23.25
2018-12-31T22:05:15.645Z,21.35
2018-12-31T22:07:45.311Z,22.45
2018-12-31T22:10:40.865Z,22.85
2018-12-31T22:13:10.148Z,22.02
2018-12-31T22:15:39.541Z,25.08
2018-12-31T22:32:16.873Z,24.18
2018-12-31T22:34:45.998Z,24.50
2018-12-31T22:55:43.000Z,25.15
2018-12-31T23:07:13.964Z,219.93
2018-12-31T23:13:01.004Z,411.05
2018-12-31T23:24:26.258Z,229.30
2018-12-31T23:26:42.909Z,390.85
2018-12-31T23:29:12.139Z,303.00
2018-12-31T23:35:17.261Z,133.47
2018-12-31T23:37:59.370Z,89.70
2018-12-31T23:40:28.388Z,70.35
2018-12-31T23:42:57.887Z,48.17
2018-12-31T23:45:28.356Z,42.23
2018-12-31T23:47:57.625Z,71.00
2018-12-31T23:50:27.684Z,90.83
2018-12-31T23:55:47.317Z,58.80
